This is the latest recevied weather packets stored in our database for station/object NC0S. If no packets are shown the sender has not sent any weather packets the latest 10 day(s).
| Time | Temp. | Humidity | Pressure | Rain* | Wind** | Luminosity | Snow |
|---|---|---|---|---|---|---|---|
| 1777563082 | 15° C | 55% | 1020.3 hPa | 0 mm | - | - | - |
| 1777561842 | 15° C | 57% | 1020.5 hPa | 0 mm | - | - | - |
| 1777560042 | 13.89° C | 61% | 1020.3 hPa | 0 mm | - | - | - |
| 1777558242 | 13.33° C | 61% | 1020.2 hPa | 0 mm | - | - | - |
| 1777557642 | 13.33° C | 61% | 1020.3 hPa | 0 mm | - | - | - |
| 1777553443 | 7.78° C | 90% | 1020.2 hPa | 0 mm | - | - | - |
| 1777551042 | 5.56° C | 96% | 1019.9 hPa | 0 mm | - | - | - |
| 1777549245 | 4.44° C | 96% | 1019.6 hPa | 0 mm | - | - | - |
| 1777548684 | 4.44° C | 96% | 1019.7 hPa | 0 mm | - | - | - |
| 1777546844 | 4.44° C | 95% | 1019.7 hPa | 0 mm | - | - | - |
| 1777546264 | 4.44° C | 95% | 1019.6 hPa | 0 mm | - | - | - |
| 1777545644 | 4.44° C | 95% | 1019.9 hPa | 0 mm | - | - | - |
| 1777545084 | 4.44° C | 95% | 1019.7 hPa | 0 mm | - | - | - |
| 1777543844 | 4.44° C | 94% | 1020.2 hPa | 0 mm | - | - | - |
| 1777540845 | 5° C | 92% | 1019.9 hPa | 0 mm | - | - | - |
| 1777540244 | 5° C | 92% | 1019.9 hPa | 0 mm | - | - | - |
| 1777535444 | 5° C | 92% | 1019.1 hPa | 0 mm | - | - | - |
| 1777527645 | 6.11° C | 89% | 1020.4 hPa | 0 mm | - | - | - |
| 1777524685 | 6.67° C | 85% | 1020.3 hPa | 0 mm | - | - | - |
| 1777515064 | 10° C | 71% | 1019.9 hPa | 0 mm | - | - | - |
| 1777514444 | 10.56° C | 69% | 1019.8 hPa | 0 mm | - | - | - |
| 1777512044 | 12.78° C | 57% | 1019.3 hPa | 0 mm | - | - | - |
| 1777508444 | 14.44° C | 47% | 1019 hPa | 0 mm | - | - | - |
| 1777503643 | 15.56° C | 45% | 1018.9 hPa | 0 mm | - | - | - |
| 1777500044 | 15.56° C | 47% | 1019.2 hPa | 0 mm | - | - | - |
* Rain latest hour (hover to see other rain measurements)
** Current wind speed in m/s (hover to see current wind gust speed)